Time;durP1;ratioP1;P1;durP2;ratioP2;P2;SDS_P1;SDS_P2;PMS_P1;PMS_P2;Temp;Humidity;BMP_temperature;BMP_pressure;BME280_temperature;BME280_humidity;BME280_pressure;Samples;Min_cycle;Max_cycle;Signal;HPM_P1;HPM_P2
2022/04/07 00:01:23;;;;;;;11.28;6.37;;;;;;;13.99;58.15;100114.53;1746543;80;21097;-54
2022/04/07 00:03:50;;;;;;;7.62;5.65;;;;;;;14.06;57.24;100116.62;1745784;80;20935;-54
2022/04/07 00:06:17;;;;;;;8.80;6.25;;;;;;;13.98;57.53;100118.14;1746466;80;20954;-55
2022/04/07 00:08:45;;;;;;;8.40;6.20;;;;;;;13.99;57.63;100115.84;1746100;81;21563;-54
2022/04/07 00:11:12;;;;;;;7.45;5.80;;;;;;;13.87;57.94;100119.11;1745513;80;20959;-56
2022/04/07 00:13:40;;;;;;;8.30;5.65;;;;;;;13.82;58.27;100120.73;1745984;80;21014;-55
2022/04/07 00:16:08;;;;;;;9.88;6.35;;;;;;;13.82;58.49;100121.53;1746069;80;20974;-54
2022/04/07 00:18:36;;;;;;;9.08;5.85;;;;;;;13.77;58.83;100126.59;1746111;80;21070;-55
2022/04/07 00:21:11;;;;;;;7.62;5.55;;;;;;;13.72;59.16;100124.31;1745423;81;21078;-59
2022/04/07 00:23:35;;;;;;;8.00;5.50;;;;;;;13.68;58.89;100137.02;1745481;81;21042;-55
2022/04/07 00:26:01;;;;;;;9.05;6.00;;;;;;;13.61;59.62;100127.06;1746108;81;20978;-56
2022/04/07 00:28:30;;;;;;;8.83;6.28;;;;;;;13.51;59.83;100131.91;1746661;80;21114;-55
2022/04/07 00:30:58;;;;;;;10.53;6.50;;;;;;;13.43;60.44;100136.86;1745885;81;20962;-59
2022/04/07 00:33:26;;;;;;;8.80;6.65;;;;;;;13.35;60.86;100136.58;1743561;80;21154;-56
2022/04/07 00:35:53;;;;;;;7.60;5.30;;;;;;;13.20;60.92;100135.96;1737527;80;20998;-55
2022/04/07 00:38:20;;;;;;;9.30;5.83;;;;;;;13.15;61.52;100136.58;1746422;80;21448;-55
2022/04/07 00:40:47;;;;;;;7.65;6.00;;;;;;;13.00;62.19;100132.56;1745840;81;20976;-56
2022/04/07 00:43:31;;;;;;;9.43;6.67;;;;;;;12.98;63.49;100134.05;1745743;81;20987;-55
2022/04/07 00:46:01;;;;;;;9.90;7.00;;;;;;;12.86;64.74;100132.55;1746143;80;21158;-55
2022/04/07 00:48:28;;;;;;;9.40;5.87;;;;;;;12.99;64.18;100130.93;1746313;81;21002;-55
2022/04/07 00:50:55;;;;;;;8.05;5.90;;;;;;;12.63;66.62;100131.63;1745588;80;21021;-55
2022/04/07 00:53:25;;;;;;;9.93;6.37;;;;;;;12.48;67.87;100133.61;1746350;81;21030;-55
2022/04/07 00:55:52;;;;;;;9.60;6.17;;;;;;;12.43;68.18;100127.38;1745815;80;21089;-55
2022/04/07 00:58:20;;;;;;;12.13;6.30;;;;;;;12.33;68.71;100129.05;1746592;81;21882;-57
2022/04/07 01:00:48;;;;;;;8.40;5.60;;;;;;;12.24;69.66;100127.63;1745295;80;20879;-55
2022/04/07 01:03:15;;;;;;;10.23;6.70;;;;;;;12.04;73.34;100122.31;1746542;80;21280;-55
2022/04/07 01:05:43;;;;;;;7.95;6.00;;;;;;;12.01;73.74;100126.14;1745946;80;21009;-56
2022/04/07 01:08:10;;;;;;;9.68;6.60;;;;;;;12.16;73.88;100128.11;1746449;80;20923;-56
2022/04/07 01:10:38;;;;;;;11.30;6.08;;;;;;;12.20;73.23;100127.69;1734055;81;21006;-58
2022/04/07 01:13:06;;;;;;;10.38;6.70;;;;;;;12.18;71.49;100130.52;1745867;81;21006;-55
2022/04/07 01:15:34;;;;;;;8.73;6.28;;;;;;;12.46;67.87;100129.57;1745462;80;20962;-55
2022/04/07 01:18:01;;;;;;;8.93;6.30;;;;;;;11.52;74.33;100124.98;1745942;80;21484;-56
2022/04/07 01:20:29;;;;;;;7.78;6.17;;;;;;;11.23;78.13;100133.31;1746471;80;21038;-58
2022/04/07 01:22:56;;;;;;;9.13;5.85;;;;;;;11.84;73.67;100124.35;1745734;80;22098;-55
2022/04/07 01:25:26;;;;;;;9.10;6.22;;;;;;;12.03;70.35;100120.72;1746207;80;20943;-55
2022/04/07 01:27:55;;;;;;;8.93;5.72;;;;;;;12.00;70.01;100128.44;1745850;80;21003;-55
2022/04/07 01:30:22;;;;;;;8.30;5.75;;;;;;;12.02;69.26;100124.34;1746557;80;21062;-60
2022/04/07 01:32:56;;;;;;;9.45;6.03;;;;;;;12.02;68.46;100127.75;1745508;80;20927;-56
2022/04/07 01:35:22;;;;;;;8.95;5.90;;;;;;;11.84;70.21;100130.88;1746158;81;22302;-57
2022/04/07 01:37:49;;;;;;;8.33;6.08;;;;;;;11.74;71.21;100125.67;1745676;81;20875;-56
2022/04/07 01:40:18;;;;;;;7.97;5.95;;;;;;;11.80;70.85;100119.69;1746255;80;20950;-57
2022/04/07 01:42:47;;;;;;;10.10;6.05;;;;;;;11.78;72.04;100119.89;1745772;80;20950;-57
2022/04/07 01:45:14;;;;;;;10.45;5.78;;;;;;;11.76;73.38;100121.08;1746507;80;21115;-55
2022/04/07 01:47:42;;;;;;;9.90;6.25;;;;;;;11.72;75.50;100127.19;1745747;81;21605;-55
2022/04/07 01:50:10;;;;;;;10.32;6.20;;;;;;;11.66;77.24;100124.03;1746324;80;20965;-56
2022/04/07 01:52:45;;;;;;;7.28;5.20;;;;;;;11.64;79.64;100126.05;1734182;81;21105;-62
2022/04/07 01:55:09;;;;;;;8.15;5.37;;;;;;;11.64;80.65;100130.77;1744479;80;21607;-55
2022/04/07 01:57:36;;;;;;;8.65;5.47;;;;;;;11.69;81.29;100132.28;1745772;80;21650;-55
2022/04/07 02:00:04;;;;;;;8.85;4.90;;;;;;;11.69;82.39;100132.28;1713543;82;21161;-55
2022/04/07 02:02:34;;;;;;;;;;;;;;;11.73;83.19;100137.93;1747376;81;20887;-57
2022/04/07 02:05:09;;;;;;;6.80;5.17;;;;;;;11.84;82.34;100137.41;1745979;81;20341;-57
2022/04/07 02:07:37;;;;;;;7.85;5.67;;;;;;;11.79;82.59;100144.20;1745243;80;22305;-57
2022/04/07 02:10:10;;;;;;;8.63;5.70;;;;;;;11.84;82.82;100141.33;1745901;80;20934;-56
2022/04/07 02:12:41;;;;;;;10.08;6.03;;;;;;;11.76;85.23;100145.89;1733960;80;21263;-56
2022/04/07 02:15:11;;;;;;;7.03;5.08;;;;;;;11.86;86.84;100151.09;1746147;80;21085;-58
2022/04/07 02:17:39;;;;;;;8.28;5.35;;;;;;;11.95;87.21;100145.70;1734306;81;21013;-56
2022/04/07 02:20:09;;;;;;;8.90;5.78;;;;;;;11.96;87.39;100146.00;1745798;81;20927;-56
2022/04/07 02:22:36;;;;;;;7.47;4.83;;;;;;;12.08;86.25;100150.97;1745057;81;20919;-55
2022/04/07 02:25:08;;;;;;;8.23;5.58;;;;;;;11.97;86.39;100143.22;1745785;81;20891;-55
2022/04/07 02:27:39;;;;;;;9.90;5.17;;;;;;;12.02;86.27;100150.46;1746340;80;20979;-55
2022/04/07 02:30:13;;;;;;;8.60;5.47;;;;;;;11.85;90.70;100150.77;1745689;80;21009;-58
2022/04/07 02:32:42;;;;;;;8.25;5.80;;;;;;;11.29;94.01;100157.83;1745957;80;21094;-58
2022/04/07 02:35:10;;;;;;;8.53;5.80;;;;;;;11.12;97.99;100158.12;1745904;81;21436;-58
2022/04/07 02:37:37;;;;;;;8.55;5.42;;;;;;;11.16;98.15;100155.94;1734275;80;21247;-57
2022/04/07 02:40:06;;;;;;;8.93;6.47;;;;;;;11.06;99.43;100158.89;1713829;82;21093;-58
2022/04/07 02:42:35;;;;;;;9.10;6.92;;;;;;;10.99;100.00;100156.72;1746013;80;22213;-56
2022/04/07 02:45:03;;;;;;;9.63;6.28;;;;;;;11.71;94.41;100146.97;1745719;80;21093;-58
2022/04/07 02:47:33;;;;;;;8.80;5.92;;;;;;;11.65;90.22;100161.09;1746224;80;21087;-56
2022/04/07 02:50:03;;;;;;;9.23;5.78;;;;;;;11.62;90.97;100165.89;1745091;81;21249;-57
2022/04/07 02:52:30;;;;;;;9.23;6.60;;;;;;;10.78;100.00;100170.56;1746240;80;21054;-57
2022/04/07 02:54:58;;;;;;;8.75;5.75;;;;;;;10.73;100.00;100167.71;1745739;80;20974;-56
2022/04/07 02:57:27;;;;;;;11.08;6.75;;;;;;;10.71;100.00;100176.20;1714216;81;42814;-56
2022/04/07 02:59:54;;;;;;;8.93;6.17;;;;;;;10.60;100.00;100174.89;1745598;80;21576;-58
2022/04/07 03:02:20;;;;;;;9.33;6.20;;;;;;;10.67;100.00;100170.55;1672699;80;21162;-56
2022/04/07 03:04:47;;;;;;;12.03;6.60;;;;;;;11.62;99.89;100165.89;1664698;85;21488;-58
2022/04/07 03:07:14;;;;;;;8.00;5.53;;;;;;;11.65;94.36;100167.61;1686089;84;21152;-57
2022/04/07 03:09:41;;;;;;;10.38;6.10;;;;;;;11.39;100.00;100167.45;1664478;86;22143;-57
2022/04/07 03:12:09;;;;;;;8.75;5.83;;;;;;;11.35;100.00;100166.21;1686624;85;21046;-57
2022/04/07 03:14:37;;;;;;;9.83;5.90;;;;;;;11.72;100.00;100167.66;1664856;85;21639;-56
2022/04/07 03:17:05;;;;;;;11.08;6.08;;;;;;;12.50;93.40;100170.83;1686998;85;20922;-57
2022/04/07 03:19:31;;;;;;;9.10;5.83;;;;;;;12.90;87.59;100159.91;1664710;85;21083;-59
2022/04/07 03:22:00;;;;;;;9.23;5.53;;;;;;;13.27;82.90;100157.73;1686954;85;21066;-62
2022/04/07 03:24:27;;;;;;;9.43;5.58;;;;;;;13.65;78.81;100162.30;1664685;86;20999;-57
2022/04/07 03:26:54;;;;;;;6.33;4.67;;;;;;;14.17;74.75;100155.77;1687493;85;21251;-57
2022/04/07 03:29:21;;;;;;;9.03;5.92;;;;;;;13.62;80.43;100161.41;1640287;86;21003;-57
2022/04/07 03:31:49;;;;;;;11.08;5.92;;;;;;;13.96;79.79;100163.42;1687343;85;21105;-57
2022/04/07 03:34:16;;;;;;;6.90;4.70;;;;;;;14.66;73.91;100156.45;1664319;86;21032;-57
2022/04/07 03:36:42;;;;;;;6.77;4.67;;;;;;;15.27;66.44;100156.28;1687445;84;21332;-56
2022/04/07 03:39:10;;;;;;;6.93;4.63;;;;;;;16.75;59.55;100151.20;1663393;84;21428;-58
2022/04/07 03:41:38;;;;;;;6.00;4.53;;;;;;;16.70;56.15;100146.56;1662744;86;21264;-57
2022/04/07 03:44:07;;;;;;;7.57;4.30;;;;;;;17.98;51.10;100148.13;1687115;84;21358;-61
2022/04/07 03:46:34;;;;;;;5.53;4.20;;;;;;;17.98;51.10;100148.13;1664558;86;22047;-54
2022/04/07 03:49:01;;;;;;;6.93;4.90;;;;;;;19.37;46.51;100140.16;1687486;83;21696;-55
2022/04/07 03:51:28;;;;;;;6.20;4.87;;;;;;;19.37;46.51;100140.16;1664754;86;21276;-56
2022/04/07 03:53:56;;;;;;;6.37;4.40;;;;;;;19.96;44.17;100140.38;1687648;84;20947;-57
2022/04/07 03:56:24;;;;;;;6.77;4.63;;;;;;;21.21;41.78;100144.14;1664426;86;21125;-58
2022/04/07 03:58:51;;;;;;;5.80;4.47;;;;;;;21.87;39.73;100137.06;1687514;84;21092;-55
2022/04/07 04:01:18;;;;;;;5.17;4.07;;;;;;;22.46;38.31;100134.02;1655829;85;21110;-56
2022/04/07 04:03:44;;;;;;;6.53;4.50;;;;;;;23.03;37.12;100135.64;1660634;85;21214;-55
2022/04/07 04:06:11;;;;;;;5.90;4.47;;;;;;;23.47;35.69;100135.52;1681706;84;21543;-57
2022/04/07 04:08:37;;;;;;;6.63;4.60;;;;;;;23.52;34.82;100128.84;1650497;86;20983;-57
2022/04/07 04:11:05;;;;;;;8.07;4.80;;;;;;;23.36;35.14;100130.77;1681955;85;21018;-56
2022/04/07 04:13:33;;;;;;;8.90;4.73;;;;;;;23.76;34.38;100133.84;1682032;85;21053;-58
2022/04/07 04:16:01;;;;;;;6.13;4.37;;;;;;;24.09;32.85;100136.06;1653198;86;21034;-57
2022/04/07 04:18:28;;;;;;;9.90;4.93;;;;;;;24.27;32.91;100140.20;1662298;85;20935;-56
2022/04/07 04:20:55;;;;;;;6.37;5.00;;;;;;;24.58;32.07;100142.67;1661574;85;21574;-55
2022/04/07 04:23:23;;;;;;;6.20;4.87;;;;;;;24.79;31.53;100147.31;1681375;84;20975;-56
2022/04/07 04:25:51;;;;;;;7.20;4.97;;;;;;;25.07;31.08;100146.25;1682301;85;20919;-56
2022/04/07 04:28:17;;;;;;;7.70;5.23;;;;;;;25.67;30.60;100142.67;1681237;84;21074;-55
2022/04/07 04:30:44;;;;;;;6.90;4.50;;;;;;;26.18;29.46;100144.70;1681171;85;21109;-56
2022/04/07 04:33:12;;;;;;;7.40;4.87;;;;;;;26.35;29.13;100147.64;1680129;84;21028;-58
2022/04/07 04:35:39;;;;;;;7.23;5.03;;;;;;;25.57;29.38;100152.95;1674428;85;21501;-57
2022/04/07 04:38:06;;;;;;;7.03;4.90;;;;;;;25.32;29.29;100152.70;1680845;84;21432;-57
2022/04/07 04:40:33;;;;;;;9.27;5.00;;;;;;;24.79;29.69;100156.64;1680184;85;21268;-61
2022/04/07 04:43:00;;;;;;;7.17;5.30;;;;;;;24.21;30.60;100159.17;1680172;84;21044;-56
2022/04/07 04:45:26;;;;;;;6.33;5.37;;;;;;;24.89;29.75;100155.74;1681868;84;21003;-56
2022/04/07 04:47:53;;;;;;;5.93;4.73;;;;;;;24.92;29.36;100153.85;1682568;85;21585;-56
2022/04/07 04:50:20;;;;;;;6.30;5.00;;;;;;;24.89;29.36;100153.89;1681236;85;21010;-57
2022/04/07 04:52:47;;;;;;;6.40;4.50;;;;;;;24.75;29.95;100151.61;1682396;85;22085;-57
2022/04/07 04:55:14;;;;;;;6.57;5.10;;;;;;;25.93;28.77;100155.20;1679550;85;21020;-57
2022/04/07 04:57:40;;;;;;;5.83;4.47;;;;;;;26.70;27.68;100149.52;1682433;85;20986;-56
2022/04/07 05:00:08;;;;;;;6.77;5.10;;;;;;;26.92;26.88;100147.55;1682051;84;21068;-60
2022/04/07 05:02:37;;;;;;;7.43;5.53;;;;;;;26.99;26.94;100143.95;1685166;84;22267;-58
2022/04/07 05:05:07;;;;;;;6.50;4.73;;;;;;;27.31;26.79;100152.47;1664989;85;22035;-56
2022/04/07 05:07:35;;;;;;;6.10;4.70;;;;;;;27.55;26.40;100145.59;1686800;84;21058;-56
2022/04/07 05:10:04;;;;;;;7.07;4.30;;;;;;;27.79;25.75;100143.25;1663939;85;21077;-61
2022/04/07 05:12:32;;;;;;;6.00;4.97;;;;;;;28.04;25.75;100140.57;1687091;84;21532;-57
2022/04/07 05:15:00;;;;;;;5.83;4.50;;;;;;;28.06;25.36;100143.73;1665018;86;21097;-57
2022/04/07 05:17:26;;;;;;;6.30;4.80;;;;;;;28.07;25.11;100145.30;1686339;85;21178;-58
2022/04/07 05:19:55;;;;;;;6.60;4.80;;;;;;;28.24;25.23;100145.45;1663492;85;20994;-61
2022/04/07 05:22:21;;;;;;;6.92;4.58;;;;;;;28.51;24.67;100143.78;1687407;85;21922;-56
2022/04/07 05:24:48;;;;;;;8.05;4.83;;;;;;;28.27;24.35;100134.13;1664686;86;21153;-57
2022/04/07 05:27:16;;;;;;;5.57;4.60;;;;;;;27.78;24.77;100127.73;1687300;84;21077;-56
2022/04/07 05:29:43;;;;;;;6.97;5.10;;;;;;;27.33;25.22;100122.74;1665502;85;21175;-58
2022/04/07 05:32:10;;;;;;;7.67;5.10;;;;;;;27.23;25.59;100125.06;1687127;85;20973;-57
2022/04/07 05:34:37;;;;;;;5.57;4.30;;;;;;;26.89;25.87;100125.39;1667528;86;21435;-57
2022/04/07 05:37:04;;;;;;;8.00;5.37;;;;;;;26.38;26.34;100132.36;1687598;85;20938;-56
2022/04/07 05:39:31;;;;;;;6.77;4.80;;;;;;;24.93;27.66;100134.13;1665304;86;21104;-57
2022/04/07 05:41:58;;;;;;;6.90;5.03;;;;;;;24.09;28.71;100136.06;1687207;85;21272;-60
2022/04/07 05:44:26;;;;;;;6.63;5.23;;;;;;;23.79;29.37;100131.19;1665302;85;21348;-56
2022/04/07 05:46:53;;;;;;;7.23;5.27;;;;;;;23.40;29.79;100137.13;1687715;85;21109;-54
2022/04/07 05:49:20;;;;;;;5.57;4.50;;;;;;;23.09;30.29;100143.06;1665142;86;21575;-54
2022/04/07 05:51:50;;;;;;;6.57;4.90;;;;;;;22.95;30.57;100140.69;1687653;85;21008;-54
2022/04/07 05:54:17;;;;;;;7.00;5.33;;;;;;;23.01;30.71;100135.10;1664255;85;21131;-58
2022/04/07 05:56:44;;;;;;;6.40;4.97;;;;;;;22.91;30.96;100132.45;1687279;85;21017;-54
2022/04/07 05:59:11;;;;;;;5.97;4.87;;;;;;;22.98;31.12;100143.61;1664729;85;21027;-55
2022/04/07 06:01:38;;;;;;;9.70;5.27;;;;;;;23.49;30.58;100138.19;1650710;86;21035;-55
2022/04/07 06:04:05;;;;;;;6.83;5.30;;;;;;;23.75;30.08;100142.09;1644157;87;21082;-55
2022/04/07 06:06:31;;;;;;;7.13;4.83;;;;;;;23.72;29.91;100134.67;1643661;86;21285;-56
2022/04/07 06:08:58;;;;;;;7.87;4.50;;;;;;;23.61;30.14;100139.74;1644313;87;21005;-55
2022/04/07 06:11:25;;;;;;;6.70;4.70;;;;;;;23.61;30.05;100141.08;1644491;87;21050;-56
2022/04/07 06:13:51;;;;;;;6.97;4.23;;;;;;;23.58;29.76;100137.62;1644746;87;21092;-57
2022/04/07 06:16:18;;;;;;;9.63;5.03;;;;;;;23.54;30.04;100132.05;1669015;83;21019;-57
2022/04/07 06:18:45;;;;;;;6.20;4.33;;;;;;;23.43;30.34;100133.14;1663285;86;21880;-56
2022/04/07 06:21:11;;;;;;;8.23;5.40;;;;;;;23.90;29.67;100130.03;1647423;86;21045;-56
2022/04/07 06:23:40;;;;;;;8.70;4.77;;;;;;;24.88;28.25;100128.28;1637136;86;20994;-56
2022/04/07 06:26:07;;;;;;;7.70;5.20;;;;;;;24.35;28.70;100130.03;1633528;86;20984;-57
2022/04/07 06:28:34;;;;;;;7.27;5.20;;;;;;;24.53;29.06;100124.07;1644798;87;21481;-55
2022/04/07 06:31:01;;;;;;;6.80;5.13;;;;;;;24.59;28.78;100129.63;1643775;87;21178;-56
2022/04/07 06:33:28;;;;;;;5.00;4.30;;;;;;;24.75;28.57;100121.75;1644289;87;20970;-56
2022/04/07 06:35:54;;;;;;;6.57;4.60;;;;;;;26.14;27.34;100125.00;1644746;86;20939;-56
2022/04/07 06:38:21;;;;;;;6.03;3.83;;;;;;;26.98;26.20;100118.84;1644643;86;21101;-56
2022/04/07 06:40:48;;;;;;;4.90;3.63;;;;;;;27.81;24.41;100119.09;1644259;87;20987;-56
2022/04/07 06:43:15;;;;;;;5.00;3.97;;;;;;;28.23;23.76;100119.76;1643759;87;21179;-63
2022/04/07 06:45:41;;;;;;;4.83;3.80;;;;;;;28.49;23.37;100117.29;1643980;86;21543;-56
2022/04/07 06:48:09;;;;;;;4.90;4.20;;;;;;;28.76;22.79;100112.86;1668222;85;21113;-57
2022/04/07 06:50:37;;;;;;;5.80;3.60;;;;;;;29.11;22.73;100104.44;1663734;86;21030;-59
2022/04/07 06:53:05;;;;;;;5.40;3.70;;;;;;;29.01;22.70;100105.48;1647497;86;21010;-57
2022/04/07 06:55:33;;;;;;;4.50;3.70;;;;;;;29.49;22.83;100107.94;1657697;86;21282;-56
2022/04/07 06:58:02;;;;;;;4.67;3.62;;;;;;;29.91;22.21;100107.77;1668355;86;21365;-56
2022/04/07 07:00:30;;;;;;;3.80;3.08;;;;;;;30.37;21.03;100098.27;1661771;84;21575;-57
2022/04/07 07:03:00;;;;;;;4.37;3.25;;;;;;;30.47;20.13;100098.50;1638591;85;21144;-56
2022/04/07 07:05:32;;;;;;;5.55;3.42;;;;;;;30.22;20.06;100098.20;1639240;86;20912;-56
2022/04/07 07:08:14;;;;;;;5.10;3.33;;;;;;;30.11;19.98;100100.17;1675853;84;21047;-57
2022/04/07 07:10:45;;;;;;;4.25;3.17;;;;;;;30.21;20.12;100091.26;1657417;85;21021;-56
2022/04/07 07:13:14;;;;;;;4.40;2.80;;;;;;;30.31;20.08;100094.19;1681556;84;21457;-57
2022/04/07 07:15:41;;;;;;;4.22;3.17;;;;;;;30.34;19.75;100077.95;1682387;84;21014;-57
2022/04/07 07:18:08;;;;;;;4.30;3.20;;;;;;;30.28;19.93;100086.19;1682177;84;21116;-55
2022/04/07 07:20:37;;;;;;;4.33;3.52;;;;;;;30.29;19.39;100085.08;1677715;84;21065;-58
2022/04/07 07:23:05;;;;;;;3.25;2.52;;;;;;;30.34;19.53;100086.02;1682085;84;21010;-57
2022/04/07 07:25:32;;;;;;;3.80;2.70;;;;;;;30.03;18.97;100085.63;1678339;84;21084;-55
2022/04/07 07:28:01;;;;;;;4.20;2.65;;;;;;;30.23;18.46;100082.34;1680157;84;21580;-57
2022/04/07 07:30:28;;;;;;;4.85;3.58;;;;;;;30.36;17.93;100075.19;1653308;86;20952;-58
2022/04/07 07:32:55;;;;;;;3.60;2.65;;;;;;;30.25;17.95;100073.38;1681552;84;21210;-56
2022/04/07 07:35:23;;;;;;;4.95;2.40;;;;;;;30.33;18.13;100080.41;1677508;84;21002;-56
2022/04/07 07:37:52;;;;;;;4.83;2.65;;;;;;;30.12;17.87;100076.20;1653154;86;21141;-57
2022/04/07 07:40:21;;;;;;;4.28;2.75;;;;;;;30.01;18.07;100079.23;1677203;84;21033;-56
2022/04/07 07:42:49;;;;;;;4.80;3.00;;;;;;;30.01;18.00;100073.08;1682682;84;21052;-55
2022/04/07 07:45:17;;;;;;;4.15;2.70;;;;;;;29.88;17.63;100065.95;1680020;85;21229;-56
2022/04/07 07:47:43;;;;;;;5.90;2.30;;;;;;;29.76;17.62;100074.66;1652779;86;21014;-56
2022/04/07 07:50:11;;;;;;;3.90;2.60;;;;;;;29.82;17.63;100059.97;1679861;84;21003;-56
2022/04/07 07:52:38;;;;;;;3.23;2.67;;;;;;;30.33;17.48;100061.59;1658847;85;21493;-58
2022/04/07 07:55:06;;;;;;;4.40;3.10;;;;;;;29.90;17.76;100056.48;1682131;84;21045;-56
2022/04/07 07:57:32;;;;;;;4.27;2.93;;;;;;;30.04;17.35;100051.73;1681589;84;21275;-58
2022/04/07 07:59:59;;;;;;;4.90;2.67;;;;;;;30.01;17.41;100056.95;1658527;85;21069;-55
2022/04/07 08:02:27;;;;;;;4.50;2.70;;;;;;;29.87;17.62;100053.08;1682126;84;21521;-56
2022/04/07 08:04:53;;;;;;;5.40;2.90;;;;;;;29.90;17.65;100051.66;1665330;86;21471;-55
2022/04/07 08:07:23;;;;;;;3.77;2.70;;;;;;;29.89;17.49;100047.37;1687514;85;21035;-55
2022/04/07 08:09:50;;;;;;;3.70;2.77;;;;;;;29.94;17.77;100045.89;1665046;86;21499;-56
2022/04/07 08:12:17;;;;;;;4.60;2.93;;;;;;;30.13;17.68;100042.30;1687021;85;21480;-58
2022/04/07 08:14:44;;;;;;;3.97;2.30;;;;;;;30.41;17.15;100032.53;1665082;85;21148;-57
2022/04/07 08:17:11;;;;;;;3.57;2.67;;;;;;;30.25;16.85;100031.70;1687699;84;21034;-56
2022/04/07 08:19:40;;;;;;;4.03;3.10;;;;;;;30.54;16.72;100028.30;1657363;85;20960;-56
2022/04/07 08:22:07;;;;;;;4.27;2.80;;;;;;;30.57;16.57;100026.84;1687458;85;20935;-56
2022/04/07 08:24:34;;;;;;;3.57;2.73;;;;;;;30.63;16.58;100018.05;1664178;86;21063;-58
2022/04/07 08:27:04;;;;;;;4.40;2.70;;;;;;;30.39;16.67;100014.59;1687725;85;21060;-56
2022/04/07 08:29:30;;;;;;;4.20;2.90;;;;;;;30.52;16.66;100010.34;1665220;85;21084;-57
2022/04/07 08:31:57;;;;;;;4.07;2.70;;;;;;;30.33;17.06;100002.42;1687283;85;21013;-55
2022/04/07 08:34:25;;;;;;;4.40;3.20;;;;;;;30.32;17.17;100002.98;1664815;86;21059;-61
2022/04/07 08:36:53;;;;;;;4.03;3.10;;;;;;;30.45;17.19;100004.66;1686253;85;22400;-55
2022/04/07 08:39:20;;;;;;;4.10;3.07;;;;;;;31.14;16.74;99998.72;1664812;85;21077;-57
2022/04/07 08:41:50;;;;;;;5.97;3.50;;;;;;;31.31;16.48;99995.16;1686136;85;21095;-55
2022/04/07 08:44:17;;;;;;;4.43;3.00;;;;;;;31.37;16.29;99997.91;1630872;85;21086;-59
2022/04/07 08:46:56;;;;;;;5.00;2.97;;;;;;;31.01;16.37;99996.52;1664710;85;21170;-56
2022/04/07 08:49:21;;;;;;;4.03;2.60;;;;;;;30.80;16.37;99992.98;1686996;84;21034;-55
2022/04/07 08:51:50;;;;;;;7.27;2.80;;;;;;;31.21;16.45;99983.62;1665025;86;21103;-55
2022/04/07 08:54:16;;;;;;;4.90;2.77;;;;;;;31.12;16.40;99993.67;1687247;84;21019;-57
2022/04/07 08:56:43;;;;;;;3.73;2.53;;;;;;;30.85;16.38;99988.78;1664801;86;21089;-57
2022/04/07 08:59:11;;;;;;;6.67;3.20;;;;;;;31.04;16.43;100001.25;1687293;84;21156;-57
2022/04/07 09:01:39;;;;;;;4.90;2.80;;;;;;;31.00;16.19;99981.48;1665825;85;20967;-56
2022/04/07 09:04:05;;;;;;;6.70;3.00;;;;;;;30.77;16.01;99983.12;1687299;84;20950;-60
2022/04/07 09:06:35;;;;;;;6.03;3.23;;;;;;;30.83;16.00;99977.55;1664146;86;21145;-56
2022/04/07 09:09:14;;;;;;;5.33;2.73;;;;;;;30.78;16.15;99973.14;1687860;84;21086;-55
2022/04/07 09:11:41;;;;;;;3.93;2.57;;;;;;;30.44;16.40;99980.23;1640947;86;21952;-56
2022/04/07 09:14:10;;;;;;;3.93;2.90;;;;;;;30.54;16.43;99964.30;1686541;84;21610;-59
2022/04/07 09:16:39;;;;;;;3.63;2.77;;;;;;;30.73;16.28;99970.62;1662463;84;22150;-57
2022/04/07 09:19:08;;;;;;;5.07;2.50;;;;;;;30.56;16.18;99967.44;1687402;85;21587;-57
2022/04/07 09:21:36;;;;;;;3.30;2.20;;;;;;;30.64;16.38;99969.30;1640976;86;21552;-55
2022/04/07 09:24:07;;;;;;;4.67;2.77;;;;;;;30.76;15.99;99969.97;1687222;85;21271;-56
2022/04/07 09:26:36;;;;;;;4.03;3.00;;;;;;;30.70;16.13;99961.84;1664395;85;21117;-55
2022/04/07 09:29:14;;;;;;;3.73;2.60;;;;;;;30.47;16.16;99955.39;1687757;85;21630;-55
2022/04/07 09:31:51;;;;;;;3.90;2.80;;;;;;;30.48;16.33;99953.48;1664395;85;21520;-56
2022/04/07 09:34:30;;;;;;;5.53;2.98;;;;;;;30.66;16.60;99954.19;1684607;84;22451;-55
2022/04/07 09:37:07;;;;;;;5.20;2.37;;;;;;;30.74;16.22;99955.52;1657408;85;21321;-56
2022/04/07 09:39:36;;;;;;;3.80;2.80;;;;;;;30.66;16.09;99948.81;1685956;85;21623;-58
2022/04/07 09:42:22;;;;;;;4.00;2.90;;;;;;;30.46;16.15;99935.55;1665091;84;21108;-56
2022/04/07 09:45:00;;;;;;;4.43;2.60;;;;;;;30.28;16.58;99941.55;1664445;85;20990;-57
2022/04/07 09:47:41;;;;;;;4.80;2.80;;;;;;;30.46;16.32;99937.68;1687327;85;21016;-56
2022/04/07 09:50:19;;;;;;;4.40;2.77;;;;;;;30.79;16.23;99935.69;1665020;86;21270;-56
2022/04/07 09:53:00;;;;;;;4.40;2.80;;;;;;;30.87;16.09;99934.06;1687348;85;21121;-58
2022/04/07 09:55:34;;;;;;;6.17;2.98;;;;;;;30.98;15.95;99934.69;1664992;85;21040;-56
2022/04/07 09:58:03;;;;;;;4.63;2.80;;;;;;;31.06;15.84;99933.05;1686940;85;21144;-57
2022/04/07 10:00:31;;;;;;;3.93;2.80;;;;;;;31.04;16.07;99934.52;1686681;83;21719;-58
2022/04/07 10:02:59;;;;;;;3.77;2.70;;;;;;;30.95;16.27;99926.48;1659540;85;22542;-56
2022/04/07 10:05:26;;;;;;;6.43;2.80;;;;;;;30.90;15.93;99917.27;1658672;85;21109;-56
2022/04/07 10:07:52;;;;;;;7.50;2.57;;;;;;;31.28;15.66;99914.43;1676356;85;21042;-56
2022/04/07 10:10:19;;;;;;;7.07;3.07;;;;;;;31.29;15.64;99921.38;1681657;84;21077;-56
2022/04/07 10:12:46;;;;;;;5.30;2.53;;;;;;;31.23;15.55;99910.60;1653056;86;21030;-59
2022/04/07 10:15:15;;;;;;;4.20;2.27;;;;;;;31.25;15.74;99915.90;1681192;84;21205;-57
2022/04/07 10:17:42;;;;;;;3.97;2.40;;;;;;;31.19;15.67;99915.08;1681617;85;21041;-56
2022/04/07 10:20:12;;;;;;;3.90;2.50;;;;;;;31.02;15.48;99910.03;1681713;84;20954;-56
2022/04/07 10:23:03;;;;;;;5.20;2.57;;;;;;;30.55;15.95;99909.38;1679576;85;21002;-56
2022/04/07 10:25:31;;;;;;;27.57;4.83;;;;;;;30.45;16.14;99909.75;1681277;84;21670;-58
2022/04/07 10:28:02;;;;;;;5.20;2.47;;;;;;;30.51;15.88;99886.94;1681746;85;22430;-56
2022/04/07 10:30:35;;;;;;;;;;;;;;;30.43;15.74;99900.67;1683936;84;20931;-56
2022/04/07 10:33:01;;;;;;;6.67;2.40;;;;;;;30.19;16.04;99885.14;1681588;85;20247;-56
2022/04/07 10:35:36;;;;;;;4.33;2.50;;;;;;;30.08;15.97;99895.98;1648918;85;21058;-56
2022/04/07 10:38:07;;;;;;;3.63;2.83;;;;;;;30.27;15.96;99888.33;1652107;86;21090;-57
2022/04/07 10:40:51;;;;;;;4.17;2.77;;;;;;;30.10;15.83;99895.09;1681519;83;21132;-61
2022/04/07 10:43:25;;;;;;;4.00;2.20;;;;;;;29.64;15.99;99887.25;1681982;84;20907;-56
2022/04/07 10:46:12;;;;;;;3.30;2.20;;;;;;;29.92;15.94;99878.78;1681990;84;21017;-57
2022/04/07 10:48:51;;;;;;;3.70;2.60;;;;;;;30.15;16.10;99879.33;1669482;85;21009;-56
2022/04/07 10:51:18;;;;;;;3.80;2.43;;;;;;;30.35;15.61;99871.14;1682087;85;20999;-56
2022/04/07 10:53:57;;;;;;;3.83;2.33;;;;;;;30.26;15.92;99880.02;1681938;85;21147;-58
2022/04/07 10:56:34;;;;;;;3.40;1.97;;;;;;;30.20;16.16;99874.61;1681459;85;21056;-57
2022/04/07 10:59:21;;;;;;;3.40;2.10;;;;;;;30.33;16.19;99866.63;1682597;84;21014;-56
2022/04/07 11:02:10;;;;;;;4.53;2.20;;;;;;;30.30;16.14;99859.98;1681732;84;21597;-56
2022/04/07 11:04:40;;;;;;;3.93;2.23;;;;;;;30.19;16.10;99870.34;1685931;84;21079;-54
2022/04/07 11:07:13;;;;;;;3.17;2.10;;;;;;;29.90;16.54;99854.16;1664832;85;21529;-57
2022/04/07 11:10:01;;;;;;;5.83;2.50;;;;;;;29.97;16.93;99859.26;1677120;85;21002;-58
2022/04/07 11:12:35;;;;;;;5.33;2.40;;;;;;;30.13;16.63;99849.31;1664303;85;21630;-59
2022/04/07 11:15:09;;;;;;;4.13;2.20;;;;;;;30.11;16.61;99846.14;1687584;84;21552;-58
2022/04/07 11:17:46;;;;;;;5.80;2.00;;;;;;;29.89;16.80;99841.80;1664396;85;21042;-56
2022/04/07 11:20:19;;;;;;;3.20;2.07;;;;;;;29.84;16.61;99839.30;1686961;85;21240;-61
2022/04/07 11:22:49;;;;;;;4.13;2.33;;;;;;;29.59;16.82;99831.02;1665185;85;22404;-56
2022/04/07 11:25:32;;;;;;;3.83;2.50;;;;;;;29.50;16.93;99823.50;1687737;85;20982;-56
2022/04/07 11:28:15;;;;;;;6.33;2.40;;;;;;;29.52;16.85;99817.27;1665204;85;21018;-57
2022/04/07 11:30:52;;;;;;;5.13;3.03;;;;;;;29.61;16.97;99824.76;1687500;85;21499;-57
2022/04/07 11:33:28;;;;;;;4.70;2.23;;;;;;;29.47;17.03;99815.55;1664962;85;21975;-58
2022/04/07 11:36:07;;;;;;;7.20;3.07;;;;;;;29.38;17.11;99822.03;1686930;85;20970;-59